Time;durP1;ratioP1;P1;durP2;ratioP2;P2;SDS_P1;SDS_P2;PMS_P1;PMS_P2;Temp;Humidity;BMP_temperature;BMP_pressure;BME280_temperature;BME280_humidity;BME280_pressure;Samples;Min_cycle;Max_cycle;Signal;HPM_P1;HPM_P2
2021/07/14 00:00:32;;;;;;;15.80;10.77;;;;;;;24.94;44.97;99302.31;5032959;28;20025;-73
2021/07/14 00:02:57;;;;;;;12.23;10.93;;;;;;;24.95;44.75;99300.25;5015507;28;20075;-73
2021/07/14 00:05:23;;;;;;;11.80;10.60;;;;;;;24.75;44.88;99285.91;5015277;28;20025;-70
2021/07/14 00:07:49;;;;;;;16.30;10.68;;;;;;;24.77;45.07;99292.84;5033096;28;20033;-70
2021/07/14 00:10:24;;;;;;;11.70;10.50;;;;;;;24.81;45.20;99285.00;5015256;28;20033;-72
2021/07/14 00:23:09;;;;;;;16.73;11.60;;;;;;;25.11;44.95;99290.97;5033305;28;20088;-70
2021/07/14 00:25:36;;;;;;;18.77;10.95;;;;;;;25.15;45.46;99296.63;5032456;28;20034;-73
2021/07/14 00:28:02;;;;;;;13.52;10.90;;;;;;;25.15;45.68;99296.63;5032516;28;20417;-73
2021/07/14 00:30:29;;;;;;;15.98;10.60;;;;;;;25.16;45.54;99301.09;5032436;28;20052;-73
2021/07/14 00:32:55;;;;;;;13.10;11.75;;;;;;;25.01;45.69;99298.53;5032440;28;20071;-70
2021/07/14 00:35:21;;;;;;;12.40;11.18;;;;;;;24.64;46.63;99297.56;5014638;28;20025;-73
2021/07/14 00:37:46;;;;;;;22.48;11.43;;;;;;;24.86;46.15;99308.59;5032272;28;20045;-73
2021/07/14 00:40:13;;;;;;;18.33;12.70;;;;;;;24.80;46.67;99303.41;5032537;28;20064;-71
2021/07/14 00:42:40;;;;;;;15.30;11.90;;;;;;;24.59;47.09;99298.03;5032506;28;20061;-72
2021/07/14 00:45:06;;;;;;;15.18;11.90;;;;;;;24.50;47.53;99299.44;5032417;28;20031;-71
2021/07/14 00:47:33;;;;;;;16.90;12.30;;;;;;;24.69;47.39;99299.91;5014593;28;20108;-72
2021/07/14 00:50:00;;;;;;;18.40;11.60;;;;;;;24.57;47.18;99300.53;5032323;28;20025;-71
2021/07/14 00:52:25;;;;;;;15.07;11.65;;;;;;;24.53;47.69;99298.56;5032541;28;20038;-73
2021/07/14 00:54:51;;;;;;;13.02;11.55;;;;;;;24.79;46.99;99287.50;5017575;28;20395;-72
2021/07/14 00:57:19;;;;;;;18.23;11.52;;;;;;;24.59;47.90;99292.31;5038864;28;20045;-70
2021/07/14 00:59:45;;;;;;;16.10;11.05;;;;;;;24.51;47.73;99298.19;5032198;28;20470;-73
2021/07/14 01:02:12;;;;;;;15.90;11.85;;;;;;;24.50;47.96;99312.91;5032388;28;20104;-70
2021/07/14 01:05:03;;;;;;;21.23;12.48;;;;;;;24.37;48.78;99301.25;5031881;28;20025;-70
2021/07/14 01:07:41;;;;;;;21.75;13.45;;;;;;;24.43;48.19;99308.13;5019694;28;20510;-72
2021/07/14 01:10:17;;;;;;;16.92;12.25;;;;;;;24.51;47.98;99294.50;5031970;28;20247;-74
2021/07/14 01:12:55;;;;;;;15.07;11.95;;;;;;;24.44;48.51;99301.16;5031613;28;20037;-70
2021/07/14 01:15:21;;;;;;;14.82;11.85;;;;;;;24.37;48.37;99298.41;5031741;28;20021;-71
2021/07/14 01:18:00;;;;;;;15.85;12.80;;;;;;;24.32;48.57;99308.31;5013898;28;20033;-73
2021/07/14 01:20:28;;;;;;;19.80;12.88;;;;;;;23.91;50.52;99306.47;5031413;28;20017;-71
2021/07/14 01:23:09;;;;;;;14.15;12.75;;;;;;;24.05;50.08;99311.19;5031481;28;20479;-73
2021/07/14 01:25:59;;;;;;;16.77;13.15;;;;;;;24.18;49.42;99311.38;5013825;28;20036;-70
2021/07/14 01:28:30;;;;;;;21.50;13.10;;;;;;;24.19;49.59;99310.94;5013615;28;20116;-72
2021/07/14 01:30:58;;;;;;;18.85;13.65;;;;;;;24.03;50.02;99319.34;5013487;28;20041;-73
2021/07/14 01:33:28;;;;;;;21.40;14.02;;;;;;;23.87;50.82;99315.06;5031490;28;20025;-71
2021/07/14 01:35:57;;;;;;;20.50;14.43;;;;;;;24.01;50.57;99310.38;5031549;28;20039;-73
2021/07/14 01:38:27;;;;;;;17.35;13.35;;;;;;;24.03;50.44;99314.47;5031444;28;20026;-73
2021/07/14 01:40:55;;;;;;;15.35;12.45;;;;;;;23.98;49.93;99306.38;5031443;28;20044;-73
2021/07/14 01:43:22;;;;;;;19.05;12.07;;;;;;;23.85;49.01;99303.28;5031248;28;20072;-73
2021/07/14 01:45:51;;;;;;;16.63;12.80;;;;;;;23.63;49.33;99306.44;5013591;28;20029;-70
2021/07/14 01:48:18;;;;;;;21.90;13.57;;;;;;;23.88;49.22;99310.97;5031214;28;20095;-73
2021/07/14 01:50:48;;;;;;;16.05;13.02;;;;;;;23.95;48.97;99308.03;5031237;28;20041;-70
2021/07/14 01:53:14;;;;;;;14.32;11.98;;;;;;;23.94;49.15;99311.31;5013429;28;20037;-70
2021/07/14 01:55:40;;;;;;;14.13;12.65;;;;;;;23.98;49.23;99312.06;5031072;28;20053;-70
2021/07/14 01:58:07;;;;;;;19.98;13.75;;;;;;;24.01;49.05;99310.38;5030850;28;20515;-70
2021/07/14 02:00:34;;;;;;;13.73;12.35;;;;;;;24.09;48.90;99311.94;5030943;28;20022;-73
2021/07/14 02:05:31;;;;;;;22.38;13.52;;;;;;;23.82;48.86;99312.72;5031250;28;20017;-70
2021/07/14 02:07:59;;;;;;;17.65;13.25;;;;;;;24.07;47.72;99314.41;5030897;28;20120;-70
2021/07/14 02:10:27;;;;;;;17.60;12.30;;;;;;;24.18;47.10;99315.06;5030766;28;20021;-70
2021/07/14 02:12:53;;;;;;;15.13;13.23;;;;;;;23.88;48.02;99318.75;5030907;28;20030;-72
2021/07/14 02:15:20;;;;;;;16.08;13.52;;;;;;;23.90;47.56;99316.25;5030757;28;20550;-74
2021/07/14 02:18:12;;;;;;;18.23;12.55;;;;;;;23.83;47.93;99317.19;5030622;28;20040;-70
2021/07/14 02:20:38;;;;;;;16.35;12.88;;;;;;;23.68;48.07;99325.97;5030496;28;20021;-70
2021/07/14 02:23:06;;;;;;;24.05;13.48;;;;;;;23.53;48.44;99321.66;5030754;28;20083;-74
2021/07/14 02:25:32;;;;;;;18.15;14.05;;;;;;;23.39;48.79;99325.53;5030563;28;20033;-70
2021/07/14 02:27:58;;;;;;;15.07;12.30;;;;;;;23.49;48.42;99315.19;5030456;28;20490;-73
2021/07/14 02:30:24;;;;;;;14.80;12.60;;;;;;;23.35;48.73;99327.59;5030570;28;20038;-70
2021/07/14 02:32:54;;;;;;;17.95;12.60;;;;;;;23.27;49.10;99324.03;5012550;28;20036;-70
2021/07/14 02:35:20;;;;;;;14.45;12.95;;;;;;;23.27;48.86;99326.88;5030429;28;20521;-70
2021/07/14 02:37:50;;;;;;;18.70;13.45;;;;;;;23.06;49.73;99337.28;5030108;28;20037;-70
2021/07/14 02:40:23;;;;;;;15.05;12.43;;;;;;;23.17;49.52;99330.63;5030580;28;20021;-70
2021/07/14 02:42:51;;;;;;;17.10;13.18;;;;;;;23.11;49.17;99325.41;5012494;28;20081;-73
2021/07/14 02:45:16;;;;;;;15.57;13.93;;;;;;;23.22;49.09;99327.31;5030503;28;20029;-73
2021/07/14 02:47:43;;;;;;;20.75;12.90;;;;;;;22.91;49.89;99327.25;5012480;28;20429;-74
2021/07/14 02:50:15;;;;;;;15.95;13.98;;;;;;;23.01;49.92;99332.03;5012625;28;20433;-73
2021/07/14 02:52:45;;;;;;;15.05;12.95;;;;;;;22.85;49.84;99327.72;5012762;28;20025;-70
2021/07/14 02:55:15;;;;;;;17.80;13.63;;;;;;;22.94;49.96;99330.06;5030209;28;20113;-70
2021/07/14 02:57:43;;;;;;;13.95;12.32;;;;;;;22.98;50.42;99339.38;5012644;28;20045;-71
2021/07/14 03:00:09;;;;;;;17.70;13.60;;;;;;;23.06;50.18;99342.16;5012758;28;20398;-71
2021/07/14 03:02:36;;;;;;;20.10;14.43;;;;;;;23.36;48.84;99346.34;5030543;28;20033;-74
2021/07/14 03:05:03;;;;;;;27.17;13.95;;;;;;;23.40;48.85;99342.19;5030082;28;20037;-73
2021/07/14 03:07:31;;;;;;;26.55;14.23;;;;;;;23.39;48.87;99343.44;5030537;28;20041;-70
2021/07/14 03:09:58;;;;;;;16.48;13.27;;;;;;;23.05;49.64;99335.66;5030044;28;20411;-73
2021/07/14 03:12:25;;;;;;;21.42;14.70;;;;;;;22.91;50.35;99342.31;5030590;28;20034;-73
2021/07/14 03:15:01;;;;;;;17.85;13.18;;;;;;;23.03;50.00;99349.53;5030160;28;20029;-70
2021/07/14 03:17:30;;;;;;;15.55;14.07;;;;;;;23.11;49.19;99342.50;5017693;28;20480;-70
2021/07/14 03:19:56;;;;;;;23.90;13.85;;;;;;;22.70;50.60;99343.34;5012430;28;20514;-73
2021/07/14 03:22:23;;;;;;;17.27;13.77;;;;;;;22.71;50.46;99344.97;5011940;28;20037;-70
2021/07/14 03:24:49;;;;;;;19.63;14.55;;;;;;;22.59;50.92;99340.59;5030224;28;20116;-73
2021/07/14 03:27:15;;;;;;;18.92;13.52;;;;;;;22.57;51.00;99352.41;5012280;28;20039;-74
2021/07/14 03:29:43;;;;;;;17.88;13.38;;;;;;;22.46;51.42;99360.22;5029884;28;20029;-71
2021/07/14 03:32:10;;;;;;;21.65;13.80;;;;;;;22.47;51.24;99361.84;5030353;28;20120;-70
2021/07/14 03:34:37;;;;;;;18.63;13.57;;;;;;;22.58;50.84;99362.59;5029775;28;20506;-74
2021/07/14 03:37:06;;;;;;;24.90;14.15;;;;;;;22.63;50.85;99357.66;5030053;28;20099;-74
2021/07/14 03:39:34;;;;;;;21.40;13.82;;;;;;;22.54;51.12;99366.69;5029850;28;20025;-74
2021/07/14 03:42:00;;;;;;;16.67;13.25;;;;;;;22.47;51.32;99366.72;5030232;28;20136;-70
2021/07/14 03:44:27;;;;;;;19.75;13.63;;;;;;;22.54;51.13;99361.78;5029740;28;20046;-73
2021/07/14 03:46:53;;;;;;;23.85;15.10;;;;;;;22.62;50.80;99368.22;5030283;28;20109;-71
2021/07/14 03:49:19;;;;;;;17.83;14.00;;;;;;;22.54;51.02;99372.41;5012106;28;20215;-73
2021/07/14 03:51:46;;;;;;;18.48;13.40;;;;;;;22.61;51.00;99365.81;5033499;28;20037;-73
2021/07/14 03:54:14;;;;;;;25.45;17.15;;;;;;;22.61;51.06;99371.53;5033504;28;20033;-70
2021/07/14 03:56:41;;;;;;;30.25;18.02;;;;;;;22.61;51.10;99380.06;5015330;28;20418;-74
2021/07/14 03:59:07;;;;;;;22.10;17.85;;;;;;;22.53;51.63;99376.47;5033472;28;20029;-74
2021/07/14 04:01:33;;;;;;;27.60;17.48;;;;;;;22.58;51.29;99374.00;5033389;28;20037;-73
2021/07/14 04:03:59;;;;;;;20.23;15.05;;;;;;;22.56;51.74;99376.44;5015418;28;20176;-71
2021/07/14 04:06:31;;;;;;;20.30;13.82;;;;;;;22.67;51.59;99382.06;5033030;28;20026;-74
2021/07/14 04:09:22;;;;;;;20.58;14.43;;;;;;;22.69;51.70;99385.28;5033210;28;20037;-72
2021/07/14 04:11:54;;;;;;;19.67;14.00;;;;;;;22.82;51.74;99377.03;5032524;28;20499;-74
2021/07/14 04:14:20;;;;;;;18.35;13.70;;;;;;;22.89;51.75;99383.88;5032585;28;20026;-75
2021/07/14 04:16:46;;;;;;;60.85;15.38;;;;;;;23.18;51.53;99386.47;5032822;28;20083;-74
2021/07/14 04:19:12;;;;;;;21.33;13.70;;;;;;;23.15;51.12;99382.41;5032586;28;20040;-74
2021/07/14 04:21:37;;;;;;;25.23;15.05;;;;;;;23.04;52.01;99385.34;5032808;28;20041;-73
2021/07/14 04:24:04;;;;;;;23.52;16.52;;;;;;;22.91;52.92;99387.13;5032459;28;20029;-74
2021/07/14 04:26:30;;;;;;;37.05;15.90;;;;;;;23.06;52.36;99388.63;5032814;28;20044;-74
2021/07/14 04:28:55;;;;;;;25.45;14.60;;;;;;;23.16;52.39;99389.72;5031005;28;20026;-75
2021/07/14 04:31:21;;;;;;;20.08;14.65;;;;;;;23.03;52.94;99402.91;5032000;28;20063;-74
2021/07/14 04:33:46;;;;;;;24.42;15.82;;;;;;;22.95;53.01;99397.25;5032529;28;20060;-74
2021/07/14 04:36:12;;;;;;;17.10;14.48;;;;;;;22.93;53.42;99398.94;5032413;28;20030;-74
2021/07/14 04:38:38;;;;;;;16.52;14.80;;;;;;;23.02;53.51;99399.22;5031473;28;20029;-74
2021/07/14 04:41:04;;;;;;;23.20;14.45;;;;;;;22.96;53.73;99389.53;5030314;28;20037;-74
2021/07/14 04:43:30;;;;;;;19.38;14.63;;;;;;;23.11;53.94;99404.47;5012679;28;20057;-75
2021/07/14 04:45:55;;;;;;;24.52;15.60;;;;;;;23.29;53.65;99410.00;5030572;28;20029;-75
2021/07/14 04:48:22;;;;;;;19.58;14.65;;;;;;;23.31;53.36;99406.72;5030252;28;20025;-74
2021/07/14 04:50:48;;;;;;;20.45;14.75;;;;;;;23.40;53.43;99407.81;5030444;28;20124;-74
2021/07/14 04:53:13;;;;;;;23.95;15.52;;;;;;;23.52;52.92;99415.03;5030138;28;20075;-74
2021/07/14 04:55:39;;;;;;;19.60;15.43;;;;;;;23.65;52.65;99421.03;5032080;28;20041;-75
2021/07/14 04:58:05;;;;;;;18.20;14.52;;;;;;;23.79;52.31;99422.88;5014048;28;20033;-75
2021/07/14 05:00:30;;;;;;;21.80;14.73;;;;;;;23.74;52.48;99420.50;5031945;28;20025;-76
2021/07/14 05:02:56;;;;;;;18.83;13.27;;;;;;;23.93;52.09;99421.88;5032008;28;20095;-73
2021/07/14 05:05:22;;;;;;;19.23;14.95;;;;;;;24.09;50.99;99420.47;5031817;28;20483;-75
2021/07/14 05:07:49;;;;;;;15.63;13.63;;;;;;;24.13;51.10;99409.81;5031864;28;20471;-75
2021/07/14 05:10:16;;;;;;;18.98;14.10;;;;;;;24.17;51.56;99422.00;5031660;28;20479;-73
2021/07/14 05:12:43;;;;;;;26.27;15.75;;;;;;;24.24;51.28;99419.03;5032236;28;20044;-76
2021/07/14 05:15:09;;;;;;;21.23;15.35;;;;;;;24.38;50.93;99425.78;5031640;28;20513;-72
2021/07/14 05:17:35;;;;;;;35.92;15.02;;;;;;;24.68;49.88;99426.94;5032009;28;20037;-75
2021/07/14 05:20:00;;;;;;;32.80;14.85;;;;;;;24.70;49.65;99429.38;5031846;28;20028;-72
2021/07/14 05:22:26;;;;;;;35.15;16.45;;;;;;;24.68;50.05;99422.06;5032016;28;20045;-72
2021/07/14 05:24:52;;;;;;;61.78;17.35;;;;;;;24.83;49.88;99426.72;5031429;28;20026;-72
2021/07/14 05:27:17;;;;;;;18.50;14.25;;;;;;;24.89;49.08;99413.56;5031817;28;20041;-72
2021/07/14 05:29:43;;;;;;;20.20;14.55;;;;;;;24.94;48.25;99415.91;5013707;28;20026;-72
2021/07/14 05:32:08;;;;;;;30.90;15.10;;;;;;;25.00;48.35;99411.34;5031409;28;20188;-69
2021/07/14 05:34:34;;;;;;;33.20;14.23;;;;;;;25.05;48.89;99410.81;5031309;28;20040;-69
2021/07/14 05:37:00;;;;;;;27.13;14.95;;;;;;;25.13;48.47;99405.75;5013674;28;20143;-72
2021/07/14 05:39:25;;;;;;;20.95;12.75;;;;;;;25.22;47.34;99408.09;5013382;28;20029;-72
2021/07/14 05:41:51;;;;;;;15.50;12.90;;;;;;;25.35;46.68;99411.91;5013625;28;20463;-69
2021/07/14 05:44:17;;;;;;;26.60;13.02;;;;;;;25.41;46.64;99415.06;5013500;28;20049;-68
2021/07/14 05:46:44;;;;;;;17.33;13.38;;;;;;;25.43;46.94;99417.47;5031056;28;20033;-69
2021/07/14 05:49:09;;;;;;;18.98;13.52;;;;;;;25.53;46.85;99413.63;5031110;28;20095;-69
2021/07/14 05:51:35;;;;;;;17.08;13.85;;;;;;;25.70;45.40;99405.94;5031109;28;20458;-72
2021/07/14 05:54:01;;;;;;;13.73;12.30;;;;;;;25.80;45.67;99409.81;5013617;28;20079;-72
2021/07/14 05:56:26;;;;;;;16.33;12.82;;;;;;;25.81;45.70;99419.22;5030935;28;20061;-67
2021/07/14 05:58:52;;;;;;;14.88;13.20;;;;;;;25.85;45.88;99414.22;5030856;28;20109;-69
2021/07/14 06:01:20;;;;;;;17.38;13.43;;;;;;;25.92;45.40;99420.59;5030658;28;20053;-69
2021/07/14 06:03:47;;;;;;;22.65;13.20;;;;;;;26.13;44.79;99420.59;5030730;28;20044;-70
2021/07/14 06:06:14;;;;;;;22.33;13.82;;;;;;;26.19;43.88;99422.50;5030890;28;20041;-69
2021/07/14 06:08:40;;;;;;;24.73;13.88;;;;;;;26.22;44.03;99426.53;5030573;28;20100;-70
2021/07/14 06:11:05;;;;;;;19.00;12.52;;;;;;;26.29;43.45;99425.56;5012934;28;20120;-69
2021/07/14 06:13:31;;;;;;;19.90;13.05;;;;;;;26.31;44.10;99428.81;5030052;28;20021;-70
2021/07/14 06:15:57;;;;;;;24.67;13.80;;;;;;;26.51;42.95;99428.75;5030827;28;20029;-70
2021/07/14 06:18:22;;;;;;;19.23;13.60;;;;;;;26.53;42.72;99422.53;5030392;28;20034;-70
2021/07/14 06:20:48;;;;;;;17.27;12.80;;;;;;;26.59;42.70;99421.56;5030577;28;20103;-69
2021/07/14 06:23:13;;;;;;;21.75;13.77;;;;;;;26.66;43.16;99414.03;5030655;28;20473;-69
2021/07/14 06:25:38;;;;;;;21.55;13.63;;;;;;;26.74;42.95;99421.22;5030228;28;20029;-70
2021/07/14 06:28:05;;;;;;;17.45;13.57;;;;;;;26.90;42.87;99417.56;5030521;28;20487;-70
2021/07/14 06:30:31;;;;;;;22.83;13.40;;;;;;;26.93;43.36;99422.41;5030449;28;20049;-71
2021/07/14 06:32:58;;;;;;;21.10;12.65;;;;;;;27.10;42.92;99425.25;5012412;28;20506;-71
2021/07/14 06:35:23;;;;;;;19.88;12.98;;;;;;;27.11;43.28;99421.13;5030415;28;20049;-71
2021/07/14 06:37:50;;;;;;;19.95;14.02;;;;;;;27.16;43.71;99418.50;5030088;28;20037;-70
2021/07/14 06:40:16;;;;;;;18.70;14.13;;;;;;;27.27;43.86;99415.38;5030416;28;20422;-70
2021/07/14 06:42:42;;;;;;;26.23;13.70;;;;;;;27.38;43.38;99417.13;5030217;28;20053;-69
2021/07/14 06:45:10;;;;;;;24.35;17.25;;;;;;;27.56;43.71;99405.97;5030317;28;20045;-74
2021/07/14 06:47:36;;;;;;;26.90;14.57;;;;;;;27.68;42.97;99412.22;5030748;28;20029;-74
2021/07/14 06:50:04;;;;;;;17.30;13.05;;;;;;;27.74;42.50;99405.44;5030084;28;20473;-74
2021/07/14 06:52:29;;;;;;;14.52;13.05;;;;;;;27.79;42.00;99404.09;5030055;28;20052;-74
2021/07/14 06:54:55;;;;;;;17.35;13.23;;;;;;;27.76;42.39;99402.13;5030158;28;20495;-73
2021/07/14 06:57:20;;;;;;;24.63;12.73;;;;;;;27.80;42.74;99402.81;5030432;28;20372;-70
2021/07/14 06:59:46;;;;;;;18.85;13.15;;;;;;;27.91;42.99;99396.75;5030034;28;20458;-74
2021/07/14 07:02:11;;;;;;;33.70;12.00;;;;;;;28.11;41.55;99404.38;5030445;28;20030;-70
2021/07/14 07:04:37;;;;;;;17.83;14.20;;;;;;;28.23;41.25;99411.41;5030125;28;20029;-74
2021/07/14 07:07:02;;;;;;;16.15;12.73;;;;;;;28.16;41.44;99400.91;5030221;28;20048;-73
2021/07/14 07:09:28;;;;;;;15.75;12.48;;;;;;;28.17;41.73;99400.50;5030017;28;20412;-71
2021/07/14 07:11:53;;;;;;;22.05;13.13;;;;;;;28.34;41.38;99397.50;5012204;28;20415;-71
2021/07/14 07:14:19;;;;;;;17.13;13.43;;;;;;;28.38;40.97;99403.13;5012379;28;20030;-70
2021/07/14 07:16:45;;;;;;;15.95;12.45;;;;;;;28.45;41.18;99397.97;5029940;28;20037;-75
2021/07/14 07:19:10;;;;;;;18.00;12.68;;;;;;;28.50;41.37;99402.31;5012231;28;20124;-75
2021/07/14 07:21:36;;;;;;;21.13;14.18;;;;;;;28.70;39.66;99398.41;5029766;28;20116;-75
2021/07/14 07:24:02;;;;;;;34.67;13.00;;;;;;;28.71;39.83;99389.28;5011967;28;20486;-74
2021/07/14 07:26:28;;;;;;;27.67;14.50;;;;;;;28.75;40.77;99399.91;5033465;28;20095;-74
2021/07/14 07:29:03;;;;;;;22.85;13.18;;;;;;;28.88;40.86;99392.06;5016017;28;20033;-70
2021/07/14 07:31:30;;;;;;;25.45;14.18;;;;;;;29.10;39.57;99391.34;5020813;28;20029;-70
2021/07/14 07:33:56;;;;;;;18.27;14.07;;;;;;;29.16;38.63;99388.66;5033685;28;20061;-72
2021/07/14 07:36:21;;;;;;;19.42;12.70;;;;;;;29.28;39.65;99384.94;5033382;28;20463;-70
2021/07/14 07:38:47;;;;;;;14.68;13.25;;;;;;;29.40;39.10;99386.94;5015760;28;20034;-69
2021/07/14 07:41:13;;;;;;;16.05;13.30;;;;;;;29.47;39.21;99383.03;5033440;28;20033;-69
2021/07/14 07:43:39;;;;;;;18.55;12.65;;;;;;;29.50;39.76;99384.97;5015560;28;20518;-74
2021/07/14 07:46:05;;;;;;;28.90;12.90;;;;;;;29.63;39.21;99373.38;5033406;28;20037;-68
2021/07/14 07:48:31;;;;;;;20.98;12.85;;;;;;;29.63;39.55;99369.69;5015675;28;20018;-73
2021/07/14 07:50:56;;;;;;;16.08;13.60;;;;;;;29.68;39.65;99361.25;5033299;28;20092;-74
2021/07/14 07:53:23;;;;;;;28.38;13.65;;;;;;;29.89;37.23;99360.88;5033504;28;20107;-70
2021/07/14 07:55:50;;;;;;;24.13;14.52;;;;;;;30.08;36.50;99358.91;5033210;28;20025;-69
2021/07/14 07:58:16;;;;;;;20.92;12.38;;;;;;;29.96;37.42;99363.47;5015271;28;20084;-73
2021/07/14 08:00:46;;;;;;;20.95;13.15;;;;;;;30.09;38.14;99357.63;5032390;28;20033;-75
2021/07/14 08:03:11;;;;;;;16.27;13.23;;;;;;;30.15;37.47;99352.06;5032890;28;20029;-75
2021/07/14 08:05:37;;;;;;;15.00;12.95;;;;;;;30.18;36.64;99351.13;5032874;28;20037;-74
2021/07/14 08:08:03;;;;;;;24.05;13.55;;;;;;;30.25;37.44;99345.88;5011512;28;20491;-73
2021/07/14 08:10:28;;;;;;;24.58;13.70;;;;;;;30.43;35.94;99344.31;5002809;28;20451;-71
2021/07/14 08:12:54;;;;;;;14.23;12.75;;;;;;;30.40;36.56;99348.94;5015109;28;20522;-74
2021/07/14 08:15:19;;;;;;;16.45;13.45;;;;;;;30.53;36.63;99348.03;5032669;28;20025;-70
2021/07/14 08:17:45;;;;;;;14.45;12.93;;;;;;;30.70;35.92;99354.34;5032706;28;20049;-70
2021/07/14 08:20:12;;;;;;;21.58;12.63;;;;;;;30.81;35.62;99351.00;5032596;28;20025;-72
2021/07/14 08:22:37;;;;;;;18.48;11.52;;;;;;;30.89;35.38;99348.59;5033091;28;20063;-71
2021/07/14 08:25:05;;;;;;;14.50;11.90;;;;;;;30.96;36.02;99340.44;5032530;28;20030;-75
2021/07/14 08:27:31;;;;;;;24.92;12.40;;;;;;;31.00;36.07;99346.06;5032334;28;20026;-72
2021/07/14 08:29:59;;;;;;;18.00;12.30;;;;;;;31.10;36.43;99350.56;5032637;28;20041;-73
2021/07/14 08:32:28;;;;;;;16.48;12.18;;;;;;;30.74;36.62;99339.75;5032858;28;20118;-78
2021/07/14 08:34:54;;;;;;;16.30;12.37;;;;;;;30.46;36.72;99345.44;5032538;28;20118;-77
2021/07/14 08:37:21;;;;;;;30.30;12.38;;;;;;;30.71;36.96;99346.50;5032329;28;20053;-73
2021/07/14 08:39:47;;;;;;;66.85;15.40;;;;;;;30.86;37.60;99338.81;5032254;28;20029;-73
2021/07/14 08:42:15;;;;;;;16.73;12.73;;;;;;;31.15;36.12;99346.22;5014514;28;20391;-73
2021/07/14 08:44:42;;;;;;;21.35;12.50;;;;;;;31.14;35.46;99333.06;5014901;28;20045;-78
2021/07/14 08:47:08;;;;;;;16.98;12.38;;;;;;;31.23;35.95;99338.06;5014664;28;20041;-73
2021/07/14 08:49:39;;;;;;;22.90;13.85;;;;;;;31.32;38.94;99337.25;5032119;28;20110;-73
2021/07/14 08:52:05;;;;;;;26.25;12.10;;;;;;;31.38;36.31;99335.34;5032633;28;20037;-79
2021/07/14 08:54:31;;;;;;;20.13;12.27;;;;;;;31.54;35.27;99330.47;5032018;28;20026;-79
2021/07/14 08:56:56;;;;;;;17.02;11.40;;;;;;;31.71;34.53;99330.94;5014139;28;20037;-79
2021/07/14 08:59:22;;;;;;;17.35;11.23;;;;;;;31.69;34.37;99327.72;5032247;28;20030;-79
2021/07/14 09:01:49;;;;;;;19.70;11.90;;;;;;;31.71;34.32;99323.03;5031457;28;20115;-79
2021/07/14 09:04:15;;;;;;;24.58;11.82;;;;;;;31.87;34.52;99326.91;5031743;28;20112;-72
2021/07/14 09:06:41;;;;;;;18.17;11.45;;;;;;;32.07;33.46;99320.56;5031190;28;20388;-71
2021/07/14 09:09:07;;;;;;;16.67;10.68;;;;;;;32.04;33.31;99322.31;5013714;28;20033;-74
2021/07/14 09:11:49;;;;;;;14.07;10.05;;;;;;;32.20;34.20;99326.09;5013638;28;20029;-69
2021/07/14 09:14:38;;;;;;;18.98;10.40;;;;;;;32.28;32.39;99314.97;5014071;28;20033;-75
2021/07/14 09:17:17;;;;;;;19.45;10.52;;;;;;;32.34;32.74;99319.63;5013896;28;20384;-75
2021/07/14 09:19:42;;;;;;;34.90;10.88;;;;;;;32.49;31.63;99316.81;5013873;28;20410;-75
2021/07/14 09:22:22;;;;;;;21.30;9.90;;;;;;;32.51;31.23;99316.34;5031846;28;20084;-76
2021/07/14 09:24:48;;;;;;;15.27;10.63;;;;;;;32.57;31.73;99323.03;5031582;28;20037;-74
2021/07/14 09:27:27;;;;;;;16.33;11.30;;;;;;;32.77;32.72;99315.84;5031763;28;20045;-72
2021/07/14 09:30:18;;;;;;;13.75;10.55;;;;;;;32.81;33.70;99319.34;5022846;28;20553;-72
2021/07/14 09:32:50;;;;;;;23.08;11.20;;;;;;;32.89;33.30;99314.00;5031646;28;20068;-71
2021/07/14 09:35:27;;;;;;;12.45;10.88;;;;;;;32.93;33.98;99314.63;5031256;28;20036;-74
2021/07/14 09:37:55;;;;;;;33.38;11.45;;;;;;;32.91;33.78;99311.44;5030830;28;20124;-73
2021/07/14 09:40:21;;;;;;;12.73;8.82;;;;;;;33.01;30.56;99309.25;5031071;28;20140;-72
2021/07/14 09:42:58;;;;;;;15.02;8.68;;;;;;;33.02;30.22;99311.66;5012828;28;20053;-72
2021/07/14 09:45:38;;;;;;;12.10;8.35;;;;;;;33.02;29.81;99305.06;5031018;28;20022;-74
2021/07/14 09:48:06;;;;;;;10.48;9.27;;;;;;;33.18;31.19;99307.50;5027497;28;20032;-74
2021/07/14 09:50:41;;;;;;;14.23;10.07;;;;;;;33.18;30.73;99303.78;5030824;28;20471;-73
2021/07/14 09:53:09;;;;;;;13.93;9.98;;;;;;;33.12;30.52;99315.28;5030809;28;20522;-75
2021/07/14 09:55:36;;;;;;;36.30;11.93;;;;;;;33.10;31.37;99309.19;5013584;28;20110;-76
2021/07/14 09:58:14;;;;;;;20.52;11.18;;;;;;;33.24;30.95;99301.00;5012844;28;20033;-76
2021/07/14 10:00:45;;;;;;;12.35;11.15;;;;;;;33.24;31.09;99304.69;5012800;28;20049;-77
2021/07/14 10:03:20;;;;;;;17.75;10.95;;;;;;;33.21;31.21;99307.81;5030260;28;20053;-75
2021/07/14 10:05:47;;;;;;;17.70;9.90;;;;;;;33.38;31.89;99302.34;5017833;28;20435;-74
2021/07/14 10:08:20;;;;;;;14.13;10.98;;;;;;;33.50;31.76;99297.56;5028426;28;20064;-76
2021/07/14 10:10:49;;;;;;;16.45;11.80;;;;;;;33.49;31.14;99296.78;5028435;28;20445;-74
2021/07/14 10:13:16;;;;;;;15.73;11.45;;;;;;;33.58;31.23;99298.75;5010537;28;20029;-73
2021/07/14 10:15:42;;;;;;;16.05;11.25;;;;;;;33.62;30.76;99287.75;5028461;28;20100;-74
2021/07/14 10:18:13;;;;;;;15.38;11.13;;;;;;;33.73;30.61;99293.75;5028711;28;20068;-76
2021/07/14 10:20:43;;;;;;;15.98;11.05;;;;;;;33.89;31.31;99280.03;5029960;28;20029;-77
2021/07/14 10:23:15;;;;;;;12.20;10.95;;;;;;;34.05;31.42;99283.75;5019958;28;20037;-77
2021/07/14 10:25:42;;;;;;;15.88;10.65;;;;;;;34.09;29.71;99281.44;5010071;28;20069;-78
2021/07/14 10:28:12;;;;;;;14.00;9.98;;;;;;;34.01;30.00;99283.94;5028098;28;20504;-77
2021/07/14 10:30:39;;;;;;;13.43;10.55;;;;;;;34.01;29.92;99278.16;4997594;28;20045;-77
2021/07/14 10:33:06;;;;;;;16.65;9.65;;;;;;;34.05;29.67;99272.94;5026273;28;20029;-77
2021/07/14 10:35:36;;;;;;;13.77;9.80;;;;;;;34.23;29.54;99271.09;5026168;28;20521;-77
2021/07/14 10:38:04;;;;;;;18.17;10.98;;;;;;;34.24;29.85;99272.69;5028485;28;20483;-77
2021/07/14 10:40:30;;;;;;;15.55;11.40;;;;;;;34.30;28.99;99259.84;5028966;28;20025;-77
2021/07/14 10:42:56;;;;;;;12.65;10.50;;;;;;;34.27;28.63;99268.75;5029925;28;20061;-77
2021/07/14 10:45:22;;;;;;;11.48;9.32;;;;;;;34.29;29.02;99258.25;5009117;28;20499;-77
2021/07/14 10:47:49;;;;;;;11.75;9.23;;;;;;;34.49;27.99;99259.56;5009374;28;20033;-76
2021/07/14 10:50:18;;;;;;;9.80;8.90;;;;;;;34.62;27.97;99267.94;5029729;28;20395;-76
2021/07/14 10:52:43;;;;;;;10.52;8.85;;;;;;;34.45;27.65;99261.88;5012115;28;20025;-77
2021/07/14 10:55:12;;;;;;;17.25;9.25;;;;;;;34.51;27.09;99261.97;5029653;28;20029;-77
2021/07/14 10:57:38;;;;;;;13.52;9.68;;;;;;;34.67;26.08;99258.50;5030002;28;20037;-77
2021/07/14 11:00:10;;;;;;;10.88;8.60;;;;;;;34.81;26.88;99253.94;5035027;28;20022;-77
2021/07/14 11:02:41;;;;;;;9.65;8.70;;;;;;;34.92;27.10;99246.66;5036470;28;20053;-77
2021/07/14 11:05:12;;;;;;;10.13;9.13;;;;;;;34.95;25.75;99254.34;5036675;28;20028;-77
2021/07/14 11:07:46;;;;;;;11.63;9.13;;;;;;;34.96;26.19;99253.03;5018396;28;20482;-77
2021/07/14 11:10:23;;;;;;;11.43;7.93;;;;;;;34.99;26.06;99252.81;5036190;28;20082;-76
2021/07/14 11:12:49;;;;;;;10.27;8.30;;;;;;;35.09;26.19;99255.59;5019242;28;20034;-77
2021/07/14 11:15:30;;;;;;;12.88;8.18;;;;;;;34.96;24.84;99250.13;5036132;28;20021;-77
2021/07/14 11:17:56;;;;;;;9.35;7.38;;;;;;;34.92;24.13;99244.53;5036049;28;20048;-77
2021/07/14 11:20:22;;;;;;;10.68;6.82;;;;;;;35.09;23.06;99241.06;5036435;28;20414;-77
2021/07/14 11:22:49;;;;;;;9.68;7.53;;;;;;;35.30;23.29;99229.34;5018234;28;20119;-77
2021/07/14 11:25:24;;;;;;;10.25;7.30;;;;;;;35.43;22.94;99232.69;5018191;28;20058;-77
2021/07/14 11:27:54;;;;;;;7.40;6.70;;;;;;;35.60;23.38;99224.13;5018038;28;20057;-77
2021/07/14 11:30:22;;;;;;;11.18;7.88;;;;;;;35.61;23.93;99225.72;5035978;28;20040;-77
2021/07/14 11:32:47;;;;;;;30.98;8.52;;;;;;;35.45;23.86;99226.31;5024589;28;20108;-77
2021/07/14 11:35:20;;;;;;;11.05;7.60;;;;;;;35.44;24.12;99228.44;5025686;28;20108;-77